Time;durP1;ratioP1;P1;durP2;ratioP2;P2;SDS_P1;SDS_P2;PMS_P1;PMS_P2;Temp;Humidity;BMP_temperature;BMP_pressure;BME280_temperature;BME280_humidity;BME280_pressure;Samples;Min_cycle;Max_cycle;Signal;HPM_P1;HPM_P2
2024/02/03 00:01:43;;;;;;;1.52;0.98;;;13.10;96.10;;;;;;5011165;28;20084;-45
2024/02/03 00:04:09;;;;;;;1.08;0.90;;;13.00;96.10;;;;;;5010967;28;20026;-45
2024/02/03 00:06:35;;;;;;;1.08;0.80;;;12.90;96.20;;;;;;5013894;28;20022;-44
2024/02/03 00:09:01;;;;;;;1.52;0.93;;;12.90;96.60;;;;;;5014394;28;20469;-44
2024/02/03 00:11:26;;;;;;;1.20;0.90;;;12.80;96.40;;;;;;5014523;28;20422;-45
2024/02/03 00:13:52;;;;;;;1.65;0.88;;;12.80;96.40;;;;;;5014252;28;20038;-44
2024/02/03 00:16:18;;;;;;;1.25;0.70;;;12.70;96.50;;;;;;5014261;28;20073;-45
2024/02/03 00:18:43;;;;;;;1.33;0.88;;;12.70;96.60;;;;;;5014271;28;20042;-42
2024/02/03 00:21:10;;;;;;;0.98;0.60;;;12.60;96.70;;;;;;5014346;28;20028;-44
2024/02/03 00:23:36;;;;;;;1.50;1.00;;;12.60;96.80;;;;;;5014108;28;20022;-45
2024/02/03 00:26:02;;;;;;;1.10;0.73;;;12.60;96.90;;;;;;5014471;28;20042;-45
2024/02/03 00:28:27;;;;;;;0.95;0.80;;;12.50;96.90;;;;;;5014448;28;20466;-43
2024/02/03 00:30:53;;;;;;;1.08;0.80;;;12.50;97.00;;;;;;5014116;28;20034;-44
2024/02/03 00:33:19;;;;;;;0.88;0.77;;;12.40;97.10;;;;;;5014063;28;20105;-45
2024/02/03 00:35:44;;;;;;;1.40;1.00;;;12.40;97.10;;;;;;5014046;28;20022;-42
2024/02/03 00:38:11;;;;;;;1.27;0.80;;;12.30;97.20;;;;;;5013859;28;20057;-44
2024/02/03 00:40:37;;;;;;;1.25;0.98;;;12.30;97.20;;;;;;5013905;28;20026;-42
2024/02/03 00:43:02;;;;;;;1.10;0.80;;;12.20;97.30;;;;;;5014209;28;20057;-44
2024/02/03 00:45:28;;;;;;;0.93;0.70;;;12.20;97.40;;;;;;5013976;28;20408;-45
2024/02/03 00:47:54;;;;;;;0.80;0.63;;;12.20;97.40;;;;;;5013843;28;20032;-45
2024/02/03 00:50:19;;;;;;;0.90;0.70;;;12.10;97.50;;;;;;5013814;28;20515;-44
2024/02/03 00:52:45;;;;;;;1.60;0.90;;;12.10;97.60;;;;;;5013597;28;20032;-45
2024/02/03 00:55:11;;;;;;;1.08;0.70;;;12.00;97.60;;;;;;5013821;28;20026;-45
2024/02/03 00:57:37;;;;;;;1.40;0.80;;;12.00;97.70;;;;;;5013587;28;20476;-45
2024/02/03 01:00:04;;;;;;;1.13;0.90;;;11.90;97.70;;;;;;5013554;28;20030;-45
2024/02/03 01:02:30;;;;;;;1.08;0.80;;;11.90;98.10;;;;;;5013835;28;20037;-45
2024/02/03 01:04:55;;;;;;;0.93;0.60;;;11.90;97.80;;;;;;5013460;28;20026;-45
2024/02/03 01:07:21;;;;;;;1.10;0.90;;;11.90;97.90;;;;;;5013327;28;20435;-45
2024/02/03 01:09:47;;;;;;;0.90;0.60;;;11.80;97.90;;;;;;5013317;28;20105;-45
2024/02/03 01:12:12;;;;;;;1.15;0.70;;;11.80;98.00;;;;;;5013435;28;20025;-44
2024/02/03 01:14:38;;;;;;;1.13;0.68;;;11.80;98.00;;;;;;5014578;28;20090;-44
2024/02/03 01:17:04;;;;;;;1.30;0.80;;;11.70;98.10;;;;;;5012462;28;20072;-45
2024/02/03 01:19:31;;;;;;;0.90;0.70;;;11.80;98.10;;;;;;5013196;28;20033;-44
2024/02/03 01:21:56;;;;;;;1.20;0.90;;;11.70;98.20;;;;;;5013127;28;20109;-44
2024/02/03 01:24:22;;;;;;;0.95;0.70;;;11.70;98.20;;;;;;5012977;28;20113;-45
2024/02/03 01:26:48;;;;;;;1.95;0.80;;;11.60;98.30;;;;;;5013451;28;20601;-46
2024/02/03 01:29:13;;;;;;;0.73;0.60;;;11.60;98.30;;;;;;5012994;28;20455;-45
2024/02/03 01:31:39;;;;;;;1.50;0.85;;;11.60;98.40;;;;;;5013361;28;20461;-45
2024/02/03 01:34:05;;;;;;;1.63;0.75;;;11.60;98.40;;;;;;5012805;28;20029;-45
2024/02/03 01:36:31;;;;;;;1.05;0.80;;;11.50;98.50;;;;;;5012756;28;20032;-45
2024/02/03 01:38:56;;;;;;;0.82;0.63;;;11.50;98.50;;;;;;5012773;28;20060;-45
2024/02/03 01:41:22;;;;;;;1.00;0.82;;;11.50;98.50;;;;;;5012961;28;20050;-45
2024/02/03 01:43:48;;;;;;;1.30;0.88;;;11.50;98.60;;;;;;5012774;28;20026;-44
2024/02/03 01:46:16;;;;;;;1.35;0.90;;;11.40;98.60;;;;;;5013400;28;20400;-45
2024/02/03 01:48:42;;;;;;;1.13;0.80;;;11.40;98.70;;;;;;5012613;28;20033;-40
2024/02/03 01:51:10;;;;;;;1.00;0.80;;;11.40;98.70;;;;;;5012629;28;20504;-45
2024/02/03 01:53:36;;;;;;;0.70;0.60;;;11.40;98.80;;;;;;5012910;28;20184;-45
2024/02/03 01:56:02;;;;;;;1.10;0.60;;;11.30;98.80;;;;;;5012758;28;20507;-45
2024/02/03 01:58:28;;;;;;;0.70;0.57;;;11.30;98.90;;;;;;5012343;28;20070;-45
2024/02/03 02:00:54;;;;;;;1.27;1.10;;;11.30;98.90;;;;;;5012447;28;20034;-45
2024/02/03 02:03:20;;;;;;;1.30;0.90;;;11.30;98.90;;;;;;5012470;28;20033;-45
2024/02/03 02:05:46;;;;;;;1.10;0.88;;;11.20;98.90;;;;;;5012213;28;20034;-45
2024/02/03 02:08:12;;;;;;;0.90;0.70;;;11.20;99.00;;;;;;5012309;28;20053;-45
2024/02/03 02:10:38;;;;;;;1.10;0.80;;;11.20;99.00;;;;;;5012234;28;20483;-45
2024/02/03 02:13:04;;;;;;;0.90;0.70;;;11.20;99.00;;;;;;5012151;28;20030;-45
2024/02/03 02:15:30;;;;;;;0.80;0.60;;;11.20;99.10;;;;;;5012160;28;20028;-44
2024/02/03 02:17:59;;;;;;;0.85;0.63;;;11.10;99.10;;;;;;5012177;28;20026;-45
2024/02/03 02:20:26;;;;;;;1.10;0.77;;;11.10;99.10;;;;;;5011964;28;20109;-43
2024/02/03 02:22:52;;;;;;;1.05;0.77;;;11.10;99.10;;;;;;5012085;28;20073;-45
2024/02/03 02:25:18;;;;;;;0.80;0.70;;;11.10;99.20;;;;;;5012080;28;20037;-44
2024/02/03 02:27:43;;;;;;;0.93;0.80;;;11.10;99.20;;;;;;5011969;28;20022;-41
2024/02/03 02:30:10;;;;;;;1.00;0.70;;;11.10;99.30;;;;;;5011969;28;20113;-45
2024/02/03 02:32:36;;;;;;;1.05;0.85;;;11.10;99.30;;;;;;5011907;28;20026;-45
2024/02/03 02:35:02;;;;;;;0.80;0.70;;;11.00;99.30;;;;;;5011766;28;20400;-45
2024/02/03 02:37:28;;;;;;;1.20;0.90;;;11.00;99.40;;;;;;5011838;28;20472;-44
2024/02/03 02:39:54;;;;;;;1.30;1.00;;;11.00;99.40;;;;;;5011774;28;20101;-44
2024/02/03 02:42:20;;;;;;;0.95;0.70;;;11.00;99.40;;;;;;5012130;28;20129;-45
2024/02/03 02:44:45;;;;;;;1.00;0.70;;;11.00;99.40;;;;;;5011724;28;20117;-43
2024/02/03 02:47:11;;;;;;;0.80;0.60;;;11.00;99.50;;;;;;5011689;28;20026;-44
2024/02/03 02:49:36;;;;;;;0.88;0.70;;;10.90;99.50;;;;;;5011642;28;20029;-44
2024/02/03 02:52:02;;;;;;;1.17;0.80;;;10.90;99.50;;;;;;5011762;28;20396;-44
2024/02/03 02:54:28;;;;;;;1.35;0.90;;;10.90;99.50;;;;;;5011579;28;20092;-45
2024/02/03 02:56:54;;;;;;;0.75;0.60;;;10.90;99.90;;;;;;5011621;28;20504;-44
2024/02/03 02:59:20;;;;;;;1.10;0.70;;;10.90;99.60;;;;;;5011530;28;20018;-44
2024/02/03 03:01:45;;;;;;;0.75;0.60;;;10.90;99.60;;;;;;5011665;28;20027;-44
2024/02/03 03:04:11;;;;;;;1.38;0.85;;;10.90;99.60;;;;;;5011533;28;20032;-45
2024/02/03 03:06:37;;;;;;;0.90;0.70;;;10.80;99.60;;;;;;5011542;28;20101;-43
2024/02/03 03:09:02;;;;;;;0.93;0.63;;;10.80;99.70;;;;;;5011386;28;20384;-45
2024/02/03 03:11:28;;;;;;;1.30;0.73;;;10.80;99.70;;;;;;5011546;28;20030;-45
2024/02/03 03:13:54;;;;;;;1.77;1.05;;;10.80;99.70;;;;;;5011560;28;20030;-45
2024/02/03 03:16:19;;;;;;;1.10;0.70;;;10.80;99.70;;;;;;5012113;28;20025;-45
2024/02/03 03:18:45;;;;;;;1.00;0.90;;;10.80;99.80;;;;;;5011855;28;20094;-44
2024/02/03 03:21:11;;;;;;;1.00;0.73;;;10.80;99.80;;;;;;5011575;28;20030;-45
2024/02/03 03:23:37;;;;;;;0.68;0.57;;;10.80;99.80;;;;;;5011267;28;20033;-44
2024/02/03 03:26:03;;;;;;;1.13;0.70;;;10.70;99.80;;;;;;5011266;28;20400;-44
2024/02/03 03:28:28;;;;;;;0.82;0.70;;;10.70;99.80;;;;;;5011443;28;20429;-44
2024/02/03 03:30:54;;;;;;;0.80;0.60;;;10.70;99.80;;;;;;5011234;28;20026;-45
2024/02/03 03:33:20;;;;;;;1.05;0.63;;;10.70;99.80;;;;;;5011232;28;20030;-45
2024/02/03 03:35:45;;;;;;;1.20;0.80;;;10.70;99.90;;;;;;5011513;28;20026;-44
2024/02/03 03:38:11;;;;;;;0.98;0.70;;;10.70;99.90;;;;;;5011319;28;20500;-44
2024/02/03 03:40:40;;;;;;;0.88;0.70;;;10.70;99.90;;;;;;5012847;28;20093;-45
2024/02/03 03:43:06;;;;;;;1.15;0.80;;;10.70;99.90;;;;;;5015119;28;20026;-44
2024/02/03 03:45:32;;;;;;;1.10;0.60;;;10.70;99.90;;;;;;5014864;28;20065;-45
2024/02/03 03:47:58;;;;;;;0.80;0.55;;;10.60;99.90;;;;;;5014928;28;20030;-44
2024/02/03 03:50:24;;;;;;;0.80;0.70;;;10.60;99.90;;;;;;5015171;28;20131;-44
2024/02/03 03:52:50;;;;;;;1.17;0.60;;;10.60;99.90;;;;;;5014721;28;20508;-44
2024/02/03 03:55:16;;;;;;;1.17;0.80;;;10.60;99.90;;;;;;5014752;28;20488;-44
2024/02/03 03:57:42;;;;;;;0.77;0.60;;;10.60;99.90;;;;;;5014742;28;20511;-44
2024/02/03 04:00:10;;;;;;;1.42;0.70;;;10.60;99.90;;;;;;5014662;28;20030;-44
2024/02/03 04:02:36;;;;;;;0.60;0.60;;;10.60;99.90;;;;;;5014774;28;20033;-45
2024/02/03 04:05:01;;;;;;;0.80;0.63;;;10.60;99.90;;;;;;5014669;28;20037;-43
2024/02/03 04:07:27;;;;;;;1.30;0.70;;;10.60;99.90;;;;;;5015428;28;20104;-42
2024/02/03 04:09:53;;;;;;;0.90;0.70;;;10.60;99.90;;;;;;5014984;28;20084;-45
2024/02/03 04:12:18;;;;;;;1.98;0.50;;;10.60;99.90;;;;;;5014499;28;20464;-45
2024/02/03 04:14:46;;;;;;;1.42;0.77;;;10.50;99.90;;;;;;5014208;28;20030;-43
2024/02/03 04:17:15;;;;;;;1.00;0.70;;;10.50;99.90;;;;;;5014196;28;20399;-45
2024/02/03 04:19:41;;;;;;;1.50;0.70;;;10.50;99.90;;;;;;5014384;28;20156;-43
2024/02/03 04:22:08;;;;;;;0.80;0.70;;;10.50;99.90;;;;;;5014405;28;20018;-42
2024/02/03 04:24:34;;;;;;;0.95;0.80;;;10.50;99.90;;;;;;5014207;28;20034;-44
2024/02/03 04:27:00;;;;;;;1.33;0.77;;;10.50;99.90;;;;;;5014300;28;20061;-45
2024/02/03 04:29:26;;;;;;;1.10;0.75;;;10.50;99.90;;;;;;5014036;28;20072;-44
2024/02/03 04:31:51;;;;;;;1.20;0.60;;;10.50;99.90;;;;;;5014456;28;20081;-44
2024/02/03 04:34:18;;;;;;;1.27;0.70;;;10.50;99.90;;;;;;5014021;28;20399;-44
2024/02/03 04:36:44;;;;;;;0.93;0.60;;;10.50;99.90;;;;;;5014430;28;20014;-43
2024/02/03 04:39:09;;;;;;;1.00;0.75;;;10.50;99.90;;;;;;5015223;28;20033;-43
2024/02/03 04:41:35;;;;;;;1.00;0.70;;;10.40;99.90;;;;;;5014034;28;20022;-45
2024/02/03 04:44:01;;;;;;;1.42;0.80;;;10.40;99.90;;;;;;5013999;28;20056;-46
2024/02/03 04:46:26;;;;;;;1.05;0.70;;;10.40;99.90;;;;;;5014048;28;20515;-45
2024/02/03 04:48:52;;;;;;;1.10;0.80;;;10.40;99.90;;;;;;5013774;28;20109;-45
2024/02/03 04:51:18;;;;;;;1.25;0.70;;;10.40;99.90;;;;;;5012951;28;20480;-44
2024/02/03 04:53:44;;;;;;;0.88;0.68;;;10.40;99.90;;;;;;5013416;28;20054;-44
2024/02/03 04:56:11;;;;;;;1.02;0.65;;;10.40;99.90;;;;;;5013902;28;20176;-45
2024/02/03 04:58:37;;;;;;;1.23;0.70;;;10.40;99.90;;;;;;5013510;28;20472;-45
2024/02/03 05:01:04;;;;;;;0.80;0.57;;;10.40;99.90;;;;;;5013925;28;20037;-44
2024/02/03 05:03:31;;;;;;;1.10;0.70;;;10.40;99.90;;;;;;5013574;28;20026;-44
2024/02/03 05:06:03;;;;;;;0.90;0.70;;;10.40;99.90;;;;;;5012052;28;20391;-42
2024/02/03 05:08:29;;;;;;;0.98;0.80;;;10.40;99.90;;;;;;5013407;28;20029;-44
2024/02/03 05:10:54;;;;;;;1.23;0.60;;;10.40;99.90;;;;;;5012168;28;20499;-44
2024/02/03 05:13:20;;;;;;;0.77;0.60;;;10.30;99.90;;;;;;5013181;28;20034;-44
2024/02/03 05:15:46;;;;;;;0.88;0.70;;;10.30;99.90;;;;;;5013206;28;20073;-45
2024/02/03 05:18:11;;;;;;;0.95;0.63;;;10.30;99.90;;;;;;5013236;28;20029;-44
2024/02/03 05:20:37;;;;;;;1.00;0.70;;;10.30;99.90;;;;;;5013120;28;20476;-44
2024/02/03 05:23:02;;;;;;;0.82;0.60;;;10.30;99.90;;;;;;5013319;28;20053;-44
2024/02/03 05:25:28;;;;;;;1.13;0.80;;;10.30;99.90;;;;;;5012981;28;20026;-45
2024/02/03 05:27:54;;;;;;;0.98;0.60;;;10.30;99.90;;;;;;5013187;28;20076;-42
2024/02/03 05:30:19;;;;;;;2.90;0.80;;;10.30;99.90;;;;;;5013228;28;20041;-44
2024/02/03 05:32:45;;;;;;;1.60;0.82;;;10.30;99.90;;;;;;5013040;28;20030;-44
2024/02/03 05:35:10;;;;;;;0.70;0.60;;;10.30;99.90;;;;;;5012816;28;20112;-44
2024/02/03 05:37:36;;;;;;;0.77;0.65;;;10.30;99.90;;;;;;5012867;28;20018;-44
2024/02/03 05:40:03;;;;;;;1.38;0.65;;;10.30;99.90;;;;;;5011362;28;20392;-44
2024/02/03 05:42:30;;;;;;;1.08;0.75;;;10.30;99.90;;;;;;5013562;28;20116;-45
2024/02/03 05:44:57;;;;;;;1.42;0.90;;;10.20;99.90;;;;;;5013261;28;20496;-45
2024/02/03 05:47:22;;;;;;;1.20;0.77;;;10.20;99.90;;;;;;5012713;28;20034;-45
2024/02/03 05:49:48;;;;;;;1.30;0.63;;;10.30;99.90;;;;;;5012623;28;20037;-43
2024/02/03 05:52:14;;;;;;;1.40;1.00;;;10.20;99.90;;;;;;5012669;28;20022;-44
2024/02/03 05:54:39;;;;;;;0.90;0.68;;;10.20;99.90;;;;;;5012653;28;20514;-44
2024/02/03 05:57:05;;;;;;;0.90;0.73;;;10.20;99.90;;;;;;5012690;28;20030;-45
2024/02/03 05:59:30;;;;;;;1.05;0.80;;;10.20;99.90;;;;;;5012570;28;20065;-43
2024/02/03 06:01:56;;;;;;;0.70;0.60;;;10.20;99.90;;;;;;5012678;28;20029;-45
2024/02/03 06:04:22;;;;;;;0.80;0.70;;;10.20;99.90;;;;;;5012527;28;20523;-45
2024/02/03 06:06:47;;;;;;;1.40;0.75;;;10.20;99.90;;;;;;5012414;28;20103;-44
2024/02/03 06:09:14;;;;;;;1.90;0.90;;;10.20;99.90;;;;;;5012191;28;20328;-43
2024/02/03 06:11:39;;;;;;;0.98;0.82;;;10.20;99.90;;;;;;5012586;28;20388;-44
2024/02/03 06:14:05;;;;;;;1.90;1.00;;;10.20;99.90;;;;;;5012182;28;20022;-45
2024/02/03 06:16:30;;;;;;;1.67;1.30;;;10.20;99.90;;;;;;5012038;28;20029;-44
2024/02/03 06:18:56;;;;;;;1.67;1.30;;;10.20;99.90;;;;;;5012074;28;20033;-44
2024/02/03 06:21:22;;;;;;;2.33;1.60;;;10.20;99.90;;;;;;5012186;28;20034;-45
2024/02/03 06:23:47;;;;;;;1.92;1.60;;;10.20;99.90;;;;;;5011990;28;20484;-45
2024/02/03 06:26:13;;;;;;;1.77;1.40;;;10.10;99.90;;;;;;5012097;28;20109;-44
2024/02/03 06:28:39;;;;;;;1.42;1.13;;;10.10;99.90;;;;;;5011972;28;20028;-44
2024/02/03 06:31:04;;;;;;;1.98;1.10;;;10.10;99.90;;;;;;5012083;28;20480;-44
2024/02/03 06:33:30;;;;;;;1.00;0.90;;;10.10;99.90;;;;;;5011843;28;20411;-45
2024/02/03 06:35:55;;;;;;;1.48;1.00;;;10.10;99.90;;;;;;5011827;28;20505;-43
2024/02/03 06:38:21;;;;;;;1.38;1.17;;;10.10;99.90;;;;;;5011910;28;20080;-45
2024/02/03 06:40:46;;;;;;;1.60;1.15;;;10.10;99.90;;;;;;5012045;28;20064;-44
2024/02/03 06:43:12;;;;;;;1.65;1.20;;;10.10;99.90;;;;;;5011897;28;20109;-44
2024/02/03 06:45:38;;;;;;;1.70;1.02;;;10.10;99.90;;;;;;5011729;28;20029;-44
2024/02/03 06:48:03;;;;;;;1.40;1.10;;;10.10;99.90;;;;;;5011608;28;20041;-44
2024/02/03 06:50:29;;;;;;;1.45;1.13;;;10.10;99.90;;;;;;5010279;28;20034;-45
2024/02/03 06:52:55;;;;;;;1.63;1.23;;;10.10;99.90;;;;;;5011606;28;20030;-44
2024/02/03 06:55:20;;;;;;;1.63;1.20;;;10.10;99.90;;;;;;5011625;28;20394;-45
2024/02/03 06:57:46;;;;;;;1.70;1.30;;;10.10;99.90;;;;;;5011617;28;20026;-44
2024/02/03 07:00:12;;;;;;;1.98;1.40;;;10.10;99.90;;;;;;5011562;28;20080;-45
2024/02/03 07:02:38;;;;;;;1.33;1.10;;;10.10;99.90;;;;;;5011608;28;20018;-44
2024/02/03 07:05:04;;;;;;;1.75;1.08;;;10.10;99.90;;;;;;5011897;28;20510;-45
2024/02/03 07:07:29;;;;;;;1.88;1.27;;;10.20;99.90;;;;;;5011646;28;20036;-44
2024/02/03 07:09:58;;;;;;;1.52;1.17;;;10.20;99.90;;;;;;5010365;28;20396;-45
2024/02/03 07:12:30;;;;;;;1.75;1.20;;;10.20;99.90;;;;;;5011557;28;20026;-44
2024/02/03 07:14:55;;;;;;;1.90;1.30;;;10.20;99.90;;;;;;5011754;28;20500;-43
2024/02/03 07:17:21;;;;;;;1.95;1.30;;;10.30;99.90;;;;;;5015642;28;20033;-45
2024/02/03 07:19:47;;;;;;;2.05;1.38;;;10.30;99.90;;;;;;5015672;28;20109;-44
2024/02/03 07:22:12;;;;;;;1.48;1.17;;;10.40;99.90;;;;;;5015485;28;20069;-45
2024/02/03 07:24:38;;;;;;;1.60;1.20;;;10.40;99.90;;;;;;5015237;28;20068;-47
2024/02/03 07:27:05;;;;;;;2.28;1.33;;;10.50;99.90;;;;;;5015327;28;20373;-45
2024/02/03 07:29:30;;;;;;;3.53;1.50;;;10.60;99.90;;;;;;5015406;28;20026;-42
2024/02/03 07:32:03;;;;;;;2.33;1.27;;;10.70;99.90;;;;;;5015879;28;20041;-44
2024/02/03 07:34:29;;;;;;;2.20;1.67;;;10.90;99.90;;;;;;5015123;28;20029;-44
2024/02/03 07:36:55;;;;;;;1.63;1.38;;;10.90;99.90;;;;;;5013902;28;20352;-42
2024/02/03 07:39:21;;;;;;;2.25;1.55;;;11.10;99.90;;;;;;5015120;28;20042;-43
2024/02/03 07:41:47;;;;;;;1.98;1.30;;;11.20;99.90;;;;;;5015125;28;20567;-44
2024/02/03 07:44:14;;;;;;;2.17;1.50;;;11.30;99.90;;;;;;5014946;28;20034;-46
2024/02/03 07:46:40;;;;;;;1.83;1.40;;;11.40;99.80;;;;;;5015058;28;20148;-44
2024/02/03 07:49:06;;;;;;;2.00;1.20;;;11.50;99.60;;;;;;5014901;28;20057;-45
2024/02/03 07:51:32;;;;;;;2.05;1.48;;;11.70;99.50;;;;;;5014916;28;20088;-45
2024/02/03 07:53:58;;;;;;;1.27;1.08;;;11.70;99.30;;;;;;5014729;28;20121;-45
2024/02/03 07:56:24;;;;;;;2.00;1.30;;;11.80;99.10;;;;;;5014709;28;20097;-44
2024/02/03 07:58:51;;;;;;;1.65;1.30;;;12.00;99.00;;;;;;5014652;28;20022;-44
2024/02/03 08:01:20;;;;;;;1.98;1.45;;;12.10;98.90;;;;;;5014728;28;20026;-45
2024/02/03 08:03:47;;;;;;;1.50;1.15;;;12.20;98.70;;;;;;5014670;28;20029;-44
2024/02/03 08:06:12;;;;;;;1.50;1.30;;;12.30;98.60;;;;;;5014703;28;20030;-45
2024/02/03 08:08:38;;;;;;;1.80;1.20;;;12.40;98.50;;;;;;5014509;28;20510;-45
2024/02/03 08:11:04;;;;;;;1.65;1.10;;;12.50;98.30;;;;;;5014625;28;20037;-44
2024/02/03 08:13:29;;;;;;;1.70;1.25;;;12.60;98.20;;;;;;5014516;28;20029;-44
2024/02/03 08:15:55;;;;;;;2.03;1.30;;;12.70;98.00;;;;;;5014352;28;20022;-44
2024/02/03 08:18:21;;;;;;;1.60;1.35;;;12.80;97.90;;;;;;5014352;28;20109;-45
2024/02/03 08:20:48;;;;;;;2.30;1.38;;;12.90;97.70;;;;;;5014334;28;20181;-44
2024/02/03 08:23:14;;;;;;;2.35;1.58;;;13.00;97.90;;;;;;5014333;28;20034;-44
2024/02/03 08:25:40;;;;;;;2.03;1.05;;;13.10;97.40;;;;;;5013781;28;20464;-45
2024/02/03 08:28:05;;;;;;;1.65;1.30;;;13.20;97.30;;;;;;5014200;28;20116;-45
2024/02/03 08:30:31;;;;;;;1.85;1.30;;;13.30;97.10;;;;;;5014461;28;20041;-44
2024/02/03 08:32:56;;;;;;;1.65;1.40;;;13.40;97.10;;;;;;5014126;28;20049;-45
2024/02/03 08:35:22;;;;;;;1.38;1.15;;;13.50;96.90;;;;;;5014072;28;20030;-45
2024/02/03 08:37:48;;;;;;;1.38;1.10;;;13.60;96.80;;;;;;5014127;28;20026;-43
2024/02/03 08:40:18;;;;;;;1.45;1.20;;;13.70;96.70;;;;;;5014268;28;20018;-45
2024/02/03 08:42:43;;;;;;;1.65;1.23;;;13.80;96.50;;;;;;5014053;28;20030;-45
2024/02/03 08:45:09;;;;;;;2.13;1.50;;;13.90;96.30;;;;;;5014008;28;20036;-45
2024/02/03 08:47:35;;;;;;;2.28;1.35;;;14.00;96.20;;;;;;5014006;28;20389;-45
2024/02/03 08:50:01;;;;;;;1.77;1.38;;;14.10;96.10;;;;;;5014114;28;20057;-43
2024/02/03 08:52:27;;;;;;;1.90;1.42;;;14.20;95.90;;;;;;5012735;28;20034;-45
2024/02/03 08:54:53;;;;;;;1.60;1.17;;;14.20;95.80;;;;;;5013670;28;20036;-45
2024/02/03 08:57:18;;;;;;;1.80;1.30;;;14.30;95.60;;;;;;5013876;28;20026;-45
2024/02/03 08:59:44;;;;;;;1.95;1.55;;;14.30;95.50;;;;;;5013731;28;20026;-45
2024/02/03 09:02:10;;;;;;;2.53;1.63;;;14.40;95.40;;;;;;5013774;28;20481;-45
2024/02/03 09:04:35;;;;;;;1.88;1.42;;;14.40;95.30;;;;;;5013486;28;20026;-44
2024/02/03 09:07:01;;;;;;;2.22;1.42;;;14.50;95.50;;;;;;5013554;28;20042;-44
2024/02/03 09:09:26;;;;;;;1.40;1.15;;;14.50;95.00;;;;;;5013358;28;20309;-45
2024/02/03 09:11:52;;;;;;;1.42;1.20;;;14.60;95.00;;;;;;5013517;28;20506;-44
2024/02/03 09:14:18;;;;;;;2.08;1.42;;;14.60;94.90;;;;;;5013251;28;20030;-44
2024/02/03 09:16:43;;;;;;;1.95;1.52;;;14.60;94.80;;;;;;5013322;28;20384;-45
2024/02/03 09:19:09;;;;;;;2.13;1.60;;;14.70;94.70;;;;;;5013171;28;20472;-44
2024/02/03 09:21:34;;;;;;;2.25;1.63;;;14.70;94.60;;;;;;5013288;28;20153;-42
2024/02/03 09:24:01;;;;;;;2.75;1.92;;;14.70;94.60;;;;;;5012872;28;20527;-45
2024/02/03 09:26:26;;;;;;;4.03;1.80;;;14.70;94.50;;;;;;5013144;28;20045;-45
2024/02/03 09:28:52;;;;;;;2.03;1.55;;;14.70;94.50;;;;;;5012945;28;20034;-44
2024/02/03 09:31:19;;;;;;;1.83;1.63;;;14.70;94.50;;;;;;5013055;28;20084;-45
2024/02/03 09:33:46;;;;;;;4.75;3.42;;;14.70;94.40;;;;;;5013321;28;20395;-45
2024/02/03 09:36:12;;;;;;;6.70;3.90;;;14.80;93.90;;;;;;5013066;28;20121;-44
2024/02/03 09:38:37;;;;;;;4.68;3.47;;;14.80;93.50;;;;;;5012011;28;20109;-45
2024/02/03 09:41:04;;;;;;;5.13;3.65;;;14.80;93.30;;;;;;5012927;28;20104;-44
2024/02/03 09:43:31;;;;;;;5.82;3.53;;;14.80;93.30;;;;;;5012949;28;20032;-45
2024/02/03 09:45:58;;;;;;;5.00;3.70;;;14.80;93.30;;;;;;5012661;28;20121;-44
2024/02/03 09:48:24;;;;;;;5.50;3.75;;;14.80;93.30;;;;;;5012717;28;20037;-46
2024/02/03 09:50:50;;;;;;;5.07;3.35;;;14.80;93.30;;;;;;5012768;28;20087;-45
2024/02/03 09:53:16;;;;;;;7.20;3.67;;;14.80;93.30;;;;;;5012506;28;20030;-46
2024/02/03 09:55:41;;;;;;;5.05;3.40;;;14.90;93.30;;;;;;5012737;28;20109;-45
2024/02/03 09:58:07;;;;;;;5.25;3.78;;;14.90;93.30;;;;;;5012627;28;20080;-45
2024/02/03 10:00:35;;;;;;;6.90;3.50;;;14.90;93.30;;;;;;5013163;28;20044;-45
2024/02/03 10:03:01;;;;;;;15.88;8.05;;;14.90;93.30;;;;;;5012923;28;20030;-44
2024/02/03 10:05:30;;;;;;;23.70;12.85;;;14.90;93.20;;;;;;5012921;28;20072;-46
2024/02/03 10:08:01;;;;;;;31.20;14.48;;;14.90;92.90;;;;;;5013368;28;20049;-45
2024/02/03 10:10:26;;;;;;;27.15;14.07;;;14.90;93.10;;;;;;5012390;28;20020;-45
2024/02/03 10:13:07;;;;;;;31.60;14.40;;;14.90;92.70;;;;;;5012373;28;20100;-44
2024/02/03 10:15:33;;;;;;;32.95;14.50;;;15.00;92.80;;;;;;5012056;28;20029;-45
2024/02/03 10:17:59;;;;;;;24.77;13.43;;;15.00;92.80;;;;;;5013316;28;20021;-44
2024/02/03 10:20:26;;;;;;;25.45;12.73;;;15.00;92.80;;;;;;5012214;28;20079;-45
2024/02/03 10:22:52;;;;;;;23.98;12.27;;;15.00;92.80;;;;;;5012586;28;20034;-45
2024/02/03 10:25:24;;;;;;;25.45;13.02;;;15.00;92.90;;;;;;5011853;28;20037;-45
2024/02/03 10:28:00;;;;;;;27.00;12.35;;;15.00;92.90;;;;;;5012076;28;20030;-44
2024/02/03 10:30:29;;;;;;;22.63;12.25;;;15.10;93.00;;;;;;5012238;28;20048;-45
2024/02/03 10:32:57;;;;;;;24.00;11.80;;;15.10;93.00;;;;;;5012062;28;20520;-45
2024/02/03 10:35:22;;;;;;;25.40;11.82;;;15.20;93.10;;;;;;5011964;28;20037;-46
2024/02/03 10:37:48;;;;;;;19.77;10.52;;;15.20;93.10;;;;;;5011767;28;20026;-46
2024/02/03 10:40:14;;;;;;;25.10;11.15;;;15.20;93.10;;;;;;5011745;28;20112;-45
2024/02/03 10:42:45;;;;;;;22.85;11.18;;;15.20;93.10;;;;;;5011928;28;20376;-43
2024/02/03 10:45:11;;;;;;;23.42;10.30;;;15.30;93.20;;;;;;5011909;28;20465;-44
2024/02/03 10:47:42;;;;;;;20.83;11.07;;;15.30;93.20;;;;;;5011874;28;20104;-44
2024/02/03 10:50:10;;;;;;;23.58;9.70;;;15.30;93.10;;;;;;5011915;28;20036;-45
2024/02/03 10:52:37;;;;;;;18.67;9.73;;;15.40;93.10;;;;;;5011446;28;20476;-46
2024/02/03 10:55:05;;;;;;;19.73;10.80;;;15.40;93.00;;;;;;5010131;28;20038;-44
2024/02/03 10:57:31;;;;;;;17.05;9.77;;;15.50;93.00;;;;;;5011749;28;20365;-43
2024/02/03 11:00:04;;;;;;;18.20;9.95;;;15.60;92.90;;;;;;5011790;28;20536;-46
2024/02/03 11:02:30;;;;;;;17.20;9.65;;;15.60;92.90;;;;;;5013600;28;20018;-44
2024/02/03 11:04:56;;;;;;;18.02;9.65;;;15.70;92.90;;;;;;5012336;28;20042;-46
2024/02/03 11:07:25;;;;;;;17.42;9.45;;;15.70;92.80;;;;;;5011481;28;20030;-44
2024/02/03 11:09:56;;;;;;;18.08;9.50;;;15.80;92.80;;;;;;5011881;28;20109;-46
2024/02/03 11:12:22;;;;;;;16.52;8.35;;;15.80;92.70;;;;;;5011833;28;20377;-46
2024/02/03 11:14:48;;;;;;;15.60;8.85;;;16.00;92.70;;;;;;5012274;28;20108;-45
2024/02/03 11:17:14;;;;;;;15.30;8.02;;;16.00;92.70;;;;;;5012570;28;20484;-46
2024/02/03 11:19:44;;;;;;;15.38;7.55;;;16.10;92.70;;;;;;5011339;28;20113;-46
2024/02/03 11:22:10;;;;;;;15.05;7.65;;;16.10;92.70;;;;;;5011399;28;20057;-45
2024/02/03 11:24:36;;;;;;;14.60;7.82;;;16.10;92.60;;;;;;5011145;28;20061;-44
2024/02/03 11:27:07;;;;;;;13.07;7.25;;;16.20;92.70;;;;;;5011317;28;20076;-46
2024/02/03 11:29:33;;;;;;;10.65;6.63;;;16.20;92.60;;;;;;5011200;28;20104;-45
2024/02/03 11:32:06;;;;;;;11.20;6.97;;;16.30;92.60;;;;;;5011340;28;20033;-45
2024/02/03 11:34:34;;;;;;;12.70;7.10;;;16.40;92.50;;;;;;5012056;28;20477;-44
2024/02/03 11:37:01;;;;;;;10.82;6.63;;;16.50;92.40;;;;;;5011229;28;20025;-45
2024/02/03 11:39:34;;;;;;;11.38;6.97;;;16.60;92.20;;;;;;5009795;28;20169;-44
2024/02/03 11:42:05;;;;;;;12.70;6.93;;;16.70;92.10;;;;;;5011326;28;20018;-45
2024/02/03 11:44:47;;;;;;;12.85;6.60;;;16.70;92.00;;;;;;5012247;28;20034;-42
2024/02/03 11:47:18;;;;;;;11.90;7.03;;;16.80;91.90;;;;;;5012037;28;20476;-45
2024/02/03 11:49:45;;;;;;;12.27;6.10;;;16.80;91.80;;;;;;5011474;28;20030;-45
2024/02/03 11:52:11;;;;;;;12.27;6.28;;;16.90;91.70;;;;;;5011399;28;20435;-46
2024/02/03 11:54:37;;;;;;;10.13;5.72;;;16.90;91.70;;;;;;5011421;28;20026;-45
2024/02/03 11:57:02;;;;;;;10.65;6.55;;;17.00;91.60;;;;;;5010916;28;20077;-45
2024/02/03 11:59:29;;;;;;;10.10;6.20;;;17.00;91.60;;;;;;5011268;28;20033;-45
2024/02/03 12:01:58;;;;;;;9.38;5.45;;;17.00;91.50;;;;;;5013157;28;20026;-45
2024/02/03 12:04:26;;;;;;;9.32;5.25;;;17.10;91.40;;;;;;5014813;28;20080;-44
2024/02/03 12:06:52;;;;;;;10.15;5.50;;;17.10;91.40;;;;;;5014586;28;20041;-45
2024/02/03 12:09:19;;;;;;;11.77;5.45;;;17.10;91.30;;;;;;5014496;28;20029;-44
2024/02/03 12:11:50;;;;;;;9.90;5.18;;;17.10;91.30;;;;;;5014548;28;20022;-46
2024/02/03 12:14:20;;;;;;;9.25;5.22;;;17.10;91.30;;;;;;5014584;28;20022;-44
2024/02/03 12:16:46;;;;;;;8.02;4.80;;;17.10;91.30;;;;;;5014724;28;20026;-45
2024/02/03 12:19:11;;;;;;;8.63;5.10;;;17.20;91.30;;;;;;5014434;28;20033;-46
2024/02/03 12:21:38;;;;;;;8.13;4.45;;;17.20;91.30;;;;;;5014398;28;20400;-46
2024/02/03 12:24:06;;;;;;;6.68;4.45;;;17.30;91.30;;;;;;5014065;28;20049;-45
2024/02/03 12:26:32;;;;;;;9.50;4.70;;;17.30;91.20;;;;;;5014232;28;20033;-44
2024/02/03 12:28:58;;;;;;;7.90;5.10;;;17.40;91.20;;;;;;5014533;28;20113;-44
2024/02/03 12:31:24;;;;;;;8.48;4.93;;;17.50;91.10;;;;;;5014376;28;20026;-45
2024/02/03 12:33:49;;;;;;;7.70;4.60;;;17.50;91.00;;;;;;5014145;28;20034;-46
2024/02/03 12:36:15;;;;;;;8.63;4.97;;;17.60;91.30;;;;;;5014256;28;20112;-45
2024/02/03 12:38:41;;;;;;;6.60;4.40;;;17.60;90.90;;;;;;5013892;28;20064;-44
2024/02/03 12:41:06;;;;;;;6.88;4.30;;;17.60;91.00;;;;;;5014185;28;20018;-46